sensor_id;sensor_type;location;lat;lon;timestamp;P1;durP1;ratioP1;P2;durP2;ratioP2
47381;SDS011;33128;51.580;5.170;2023-01-24T00:00:45;13.15;;;11.80;;
47381;SDS011;33128;51.580;5.170;2023-01-24T00:03:10;13.38;;;12.02;;
47381;SDS011;33128;51.580;5.170;2023-01-24T00:05:40;12.88;;;11.52;;
47381;SDS011;33128;51.580;5.170;2023-01-24T00:08:11;14.07;;;12.10;;
47381;SDS011;33128;51.580;5.170;2023-01-24T00:10:38;13.18;;;11.82;;
47381;SDS011;33128;51.580;5.170;2023-01-24T00:13:09;14.63;;;11.32;;
47381;SDS011;33128;51.580;5.170;2023-01-24T00:15:37;15.52;;;11.75;;
47381;SDS011;33128;51.580;5.170;2023-01-24T00:18:02;12.35;;;11.15;;
47381;SDS011;33128;51.580;5.170;2023-01-24T00:20:28;12.48;;;11.13;;
47381;SDS011;33128;51.580;5.170;2023-01-24T00:22:53;13.98;;;11.73;;
47381;SDS011;33128;51.580;5.170;2023-01-24T00:25:19;13.75;;;11.13;;
47381;SDS011;33128;51.580;5.170;2023-01-24T00:27:44;12.95;;;11.52;;
47381;SDS011;33128;51.580;5.170;2023-01-24T00:30:10;12.07;;;10.88;;
47381;SDS011;33128;51.580;5.170;2023-01-24T00:32:36;12.30;;;11.18;;
47381;SDS011;33128;51.580;5.170;2023-01-24T00:35:01;12.13;;;11.02;;
47381;SDS011;33128;51.580;5.170;2023-01-24T00:37:27;12.32;;;10.45;;
47381;SDS011;33128;51.580;5.170;2023-01-24T00:39:53;13.27;;;12.10;;
47381;SDS011;33128;51.580;5.170;2023-01-24T00:42:18;12.45;;;11.35;;
47381;SDS011;33128;51.580;5.170;2023-01-24T00:44:44;12.38;;;11.23;;
47381;SDS011;33128;51.580;5.170;2023-01-24T00:47:10;12.55;;;11.45;;
47381;SDS011;33128;51.580;5.170;2023-01-24T00:49:35;13.30;;;12.00;;
47381;SDS011;33128;51.580;5.170;2023-01-24T00:52:01;12.88;;;11.63;;
47381;SDS011;33128;51.580;5.170;2023-01-24T00:54:26;13.18;;;12.00;;
47381;SDS011;33128;51.580;5.170;2023-01-24T00:56:52;14.88;;;13.18;;
47381;SDS011;33128;51.580;5.170;2023-01-24T00:59:18;12.98;;;11.82;;
47381;SDS011;33128;51.580;5.170;2023-01-24T01:01:46;16.25;;;13.63;;
47381;SDS011;33128;51.580;5.170;2023-01-24T01:04:12;12.82;;;11.63;;
47381;SDS011;33128;51.580;5.170;2023-01-24T01:06:37;13.43;;;12.05;;
47381;SDS011;33128;51.580;5.170;2023-01-24T01:09:03;14.20;;;12.80;;
47381;SDS011;33128;51.580;5.170;2023-01-24T01:11:29;11.57;;;10.52;;
47381;SDS011;33128;51.580;5.170;2023-01-24T01:13:55;13.48;;;12.18;;
47381;SDS011;33128;51.580;5.170;2023-01-24T01:16:21;13.77;;;12.32;;
47381;SDS011;33128;51.580;5.170;2023-01-24T01:18:47;13.32;;;12.02;;
47381;SDS011;33128;51.580;5.170;2023-01-24T01:21:15;13.13;;;11.93;;
47381;SDS011;33128;51.580;5.170;2023-01-24T01:23:45;13.25;;;11.95;;
47381;SDS011;33128;51.580;5.170;2023-01-24T01:26:18;12.90;;;11.65;;
47381;SDS011;33128;51.580;5.170;2023-01-24T01:28:45;13.15;;;11.95;;
47381;SDS011;33128;51.580;5.170;2023-01-24T01:31:11;13.65;;;12.18;;
47381;SDS011;33128;51.580;5.170;2023-01-24T01:33:37;12.15;;;11.23;;
47381;SDS011;33128;51.580;5.170;2023-01-24T01:36:03;11.45;;;10.63;;
47381;SDS011;33128;51.580;5.170;2023-01-24T01:38:29;12.70;;;11.63;;
47381;SDS011;33128;51.580;5.170;2023-01-24T01:40:55;12.55;;;11.50;;
47381;SDS011;33128;51.580;5.170;2023-01-24T01:43:22;12.10;;;11.00;;
47381;SDS011;33128;51.580;5.170;2023-01-24T01:45:53;12.13;;;11.02;;
47381;SDS011;33128;51.580;5.170;2023-01-24T01:48:25;12.15;;;10.88;;
47381;SDS011;33128;51.580;5.170;2023-01-24T01:51:15;12.35;;;11.18;;
47381;SDS011;33128;51.580;5.170;2023-01-24T01:53:49;13.15;;;11.93;;
47381;SDS011;33128;51.580;5.170;2023-01-24T01:58:52;12.48;;;11.32;;
47381;SDS011;33128;51.580;5.170;2023-01-24T02:01:22;14.45;;;12.95;;
47381;SDS011;33128;51.580;5.170;2023-01-24T02:03:49;13.48;;;12.13;;
47381;SDS011;33128;51.580;5.170;2023-01-24T02:06:37;12.68;;;11.57;;
47381;SDS011;33128;51.580;5.170;2023-01-24T02:09:26;12.10;;;10.98;;
47381;SDS011;33128;51.580;5.170;2023-01-24T02:11:54;13.13;;;11.65;;
47381;SDS011;33128;51.580;5.170;2023-01-24T02:14:24;12.93;;;11.80;;
47381;SDS011;33128;51.580;5.170;2023-01-24T02:17:10;14.07;;;12.32;;
47381;SDS011;33128;51.580;5.170;2023-01-24T02:19:41;13.55;;;12.25;;
47381;SDS011;33128;51.580;5.170;2023-01-24T02:25:13;14.13;;;12.68;;
47381;SDS011;33128;51.580;5.170;2023-01-24T02:27:54;13.75;;;12.45;;
47381;SDS011;33128;51.580;5.170;2023-01-24T02:30:20;13.38;;;12.38;;
47381;SDS011;33128;51.580;5.170;2023-01-24T02:32:46;13.23;;;12.10;;
47381;SDS011;33128;51.580;5.170;2023-01-24T02:35:22;13.05;;;11.77;;
47381;SDS011;33128;51.580;5.170;2023-01-24T02:37:48;16.55;;;11.27;;
47381;SDS011;33128;51.580;5.170;2023-01-24T02:40:17;12.05;;;10.95;;
47381;SDS011;33128;51.580;5.170;2023-01-24T02:42:43;13.90;;;12.68;;
47381;SDS011;33128;51.580;5.170;2023-01-24T02:45:20;12.30;;;11.38;;
47381;SDS011;33128;51.580;5.170;2023-01-24T02:47:49;11.98;;;11.07;;
47381;SDS011;33128;51.580;5.170;2023-01-24T02:50:17;13.07;;;11.88;;
47381;SDS011;33128;51.580;5.170;2023-01-24T02:52:47;12.57;;;11.38;;
47381;SDS011;33128;51.580;5.170;2023-01-24T02:55:33;13.50;;;12.20;;
47381;SDS011;33128;51.580;5.170;2023-01-24T02:58:20;14.05;;;12.30;;
47381;SDS011;33128;51.580;5.170;2023-01-24T03:00:49;11.90;;;10.90;;
47381;SDS011;33128;51.580;5.170;2023-01-24T03:03:14;12.82;;;11.73;;
47381;SDS011;33128;51.580;5.170;2023-01-24T03:05:40;12.70;;;11.55;;
47381;SDS011;33128;51.580;5.170;2023-01-24T03:08:26;11.50;;;10.68;;
47381;SDS011;33128;51.580;5.170;2023-01-24T03:10:55;16.73;;;12.82;;
47381;SDS011;33128;51.580;5.170;2023-01-24T03:13:21;14.73;;;12.95;;
47381;SDS011;33128;51.580;5.170;2023-01-24T03:16:05;12.00;;;10.98;;
47381;SDS011;33128;51.580;5.170;2023-01-24T03:18:56;13.90;;;12.57;;
47381;SDS011;33128;51.580;5.170;2023-01-24T03:21:40;13.18;;;11.98;;
47381;SDS011;33128;51.580;5.170;2023-01-24T03:24:24;14.00;;;12.73;;
47381;SDS011;33128;51.580;5.170;2023-01-24T03:27:08;15.35;;;13.88;;
47381;SDS011;33128;51.580;5.170;2023-01-24T03:29:53;15.05;;;13.32;;
47381;SDS011;33128;51.580;5.170;2023-01-24T03:32:38;13.38;;;12.18;;
47381;SDS011;33128;51.580;5.170;2023-01-24T03:35:22;13.60;;;12.25;;
47381;SDS011;33128;51.580;5.170;2023-01-24T03:37:48;14.05;;;12.75;;
47381;SDS011;33128;51.580;5.170;2023-01-24T03:40:32;13.60;;;12.48;;
47381;SDS011;33128;51.580;5.170;2023-01-24T03:42:58;13.90;;;12.65;;
47381;SDS011;33128;51.580;5.170;2023-01-24T03:45:32;13.32;;;12.30;;
47381;SDS011;33128;51.580;5.170;2023-01-24T03:48:00;13.65;;;12.18;;
47381;SDS011;33128;51.580;5.170;2023-01-24T03:50:27;15.18;;;13.27;;
47381;SDS011;33128;51.580;5.170;2023-01-24T03:53:15;12.60;;;11.40;;
47381;SDS011;33128;51.580;5.170;2023-01-24T03:55:41;18.17;;;12.73;;
47381;SDS011;33128;51.580;5.170;2023-01-24T03:58:07;14.45;;;13.10;;
47381;SDS011;33128;51.580;5.170;2023-01-24T04:00:33;16.60;;;13.95;;
47381;SDS011;33128;51.580;5.170;2023-01-24T04:02:59;12.15;;;10.65;;
47381;SDS011;33128;51.580;5.170;2023-01-24T04:05:25;14.30;;;13.00;;
47381;SDS011;33128;51.580;5.170;2023-01-24T04:07:54;14.75;;;12.27;;
47381;SDS011;33128;51.580;5.170;2023-01-24T04:10:21;13.50;;;12.20;;
47381;SDS011;33128;51.580;5.170;2023-01-24T04:12:47;14.02;;;12.73;;
47381;SDS011;33128;51.580;5.170;2023-01-24T04:15:21;13.52;;;12.15;;
47381;SDS011;33128;51.580;5.170;2023-01-24T04:17:48;13.60;;;12.23;;
47381;SDS011;33128;51.580;5.170;2023-01-24T04:20:15;14.52;;;11.45;;
47381;SDS011;33128;51.580;5.170;2023-01-24T04:22:42;11.85;;;10.75;;
47381;SDS011;33128;51.580;5.170;2023-01-24T04:25:08;13.77;;;12.50;;
47381;SDS011;33128;51.580;5.170;2023-01-24T04:27:35;14.13;;;12.85;;
47381;SDS011;33128;51.580;5.170;2023-01-24T04:30:01;14.23;;;12.70;;
47381;SDS011;33128;51.580;5.170;2023-01-24T04:32:28;14.00;;;12.60;;
47381;SDS011;33128;51.580;5.170;2023-01-24T04:34:54;13.73;;;12.45;;
47381;SDS011;33128;51.580;5.170;2023-01-24T04:37:19;12.30;;;11.10;;
47381;SDS011;33128;51.580;5.170;2023-01-24T04:39:45;15.18;;;11.27;;
47381;SDS011;33128;51.580;5.170;2023-01-24T04:42:10;12.90;;;11.70;;
47381;SDS011;33128;51.580;5.170;2023-01-24T04:44:36;14.07;;;12.65;;
47381;SDS011;33128;51.580;5.170;2023-01-24T04:47:01;12.45;;;11.38;;
47381;SDS011;33128;51.580;5.170;2023-01-24T04:49:27;15.82;;;14.05;;
47381;SDS011;33128;51.580;5.170;2023-01-24T04:51:53;16.58;;;13.07;;
47381;SDS011;33128;51.580;5.170;2023-01-24T04:54:19;14.00;;;11.07;;
47381;SDS011;33128;51.580;5.170;2023-01-24T04:56:44;12.02;;;10.75;;
47381;SDS011;33128;51.580;5.170;2023-01-24T04:59:11;13.82;;;12.65;;
47381;SDS011;33128;51.580;5.170;2023-01-24T05:01:37;8.95;;;7.72;;
47381;SDS011;33128;51.580;5.170;2023-01-24T05:04:06;15.50;;;7.53;;
47381;SDS011;33128;51.580;5.170;2023-01-24T05:06:32;8.18;;;7.57;;
47381;SDS011;33128;51.580;5.170;2023-01-24T05:08:59;7.18;;;6.68;;
47381;SDS011;33128;51.580;5.170;2023-01-24T05:11:25;11.98;;;7.30;;
47381;SDS011;33128;51.580;5.170;2023-01-24T05:13:50;7.32;;;6.93;;
47381;SDS011;33128;51.580;5.170;2023-01-24T05:16:19;11.88;;;6.75;;
47381;SDS011;33128;51.580;5.170;2023-01-24T05:18:45;7.05;;;6.45;;
47381;SDS011;33128;51.580;5.170;2023-01-24T05:21:11;8.32;;;6.45;;
47381;SDS011;33128;51.580;5.170;2023-01-24T05:23:39;7.30;;;6.22;;
47381;SDS011;33128;51.580;5.170;2023-01-24T05:26:05;6.88;;;6.45;;
47381;SDS011;33128;51.580;5.170;2023-01-24T05:28:31;7.28;;;6.57;;
47381;SDS011;33128;51.580;5.170;2023-01-24T05:31:00;7.13;;;6.60;;
47381;SDS011;33128;51.580;5.170;2023-01-24T05:33:27;7.45;;;6.95;;
47381;SDS011;33128;51.580;5.170;2023-01-24T05:36:00;7.63;;;6.90;;
47381;SDS011;33128;51.580;5.170;2023-01-24T05:38:26;12.18;;;7.28;;
47381;SDS011;33128;51.580;5.170;2023-01-24T05:40:52;6.43;;;5.93;;
47381;SDS011;33128;51.580;5.170;2023-01-24T05:43:28;7.28;;;6.78;;
47381;SDS011;33128;51.580;5.170;2023-01-24T05:46:01;6.75;;;6.28;;
47381;SDS011;33128;51.580;5.170;2023-01-24T05:48:28;6.43;;;5.82;;
47381;SDS011;33128;51.580;5.170;2023-01-24T05:51:01;9.25;;;7.03;;
47381;SDS011;33128;51.580;5.170;2023-01-24T05:53:28;6.85;;;6.35;;
47381;SDS011;33128;51.580;5.170;2023-01-24T05:55:56;5.90;;;5.53;;
47381;SDS011;33128;51.580;5.170;2023-01-24T05:58:23;6.75;;;6.15;;
47381;SDS011;33128;51.580;5.170;2023-01-24T06:00:49;6.90;;;6.40;;
47381;SDS011;33128;51.580;5.170;2023-01-24T06:03:15;7.18;;;6.43;;
47381;SDS011;33128;51.580;5.170;2023-01-24T06:05:44;7.28;;;6.50;;
47381;SDS011;33128;51.580;5.170;2023-01-24T06:08:13;7.78;;;6.68;;
47381;SDS011;33128;51.580;5.170;2023-01-24T06:10:39;6.25;;;5.85;;
47381;SDS011;33128;51.580;5.170;2023-01-24T06:13:05;7.03;;;6.45;;
47381;SDS011;33128;51.580;5.170;2023-01-24T06:15:30;5.88;;;5.30;;
47381;SDS011;33128;51.580;5.170;2023-01-24T06:17:56;7.18;;;6.65;;
47381;SDS011;33128;51.580;5.170;2023-01-24T06:20:21;6.55;;;6.07;;
47381;SDS011;33128;51.580;5.170;2023-01-24T06:23:48;6.85;;;6.35;;
47381;SDS011;33128;51.580;5.170;2023-01-24T06:25:50;6.20;;;5.70;;
47381;SDS011;33128;51.580;5.170;2023-01-24T06:28:16;6.05;;;5.65;;
47381;SDS011;33128;51.580;5.170;2023-01-24T06:30:42;6.97;;;6.35;;
47381;SDS011;33128;51.580;5.170;2023-01-24T06:36:10;6.70;;;6.20;;
47381;SDS011;33128;51.580;5.170;2023-01-24T06:38:52;6.03;;;5.70;;
47381;SDS011;33128;51.580;5.170;2023-01-24T06:41:18;7.95;;;6.07;;
47381;SDS011;33128;51.580;5.170;2023-01-24T06:43:44;7.22;;;6.72;;
47381;SDS011;33128;51.580;5.170;2023-01-24T06:46:11;6.40;;;6.00;;
47381;SDS011;33128;51.580;5.170;2023-01-24T06:48:37;6.85;;;6.28;;
47381;SDS011;33128;51.580;5.170;2023-01-24T06:51:04;5.90;;;5.53;;
47381;SDS011;33128;51.580;5.170;2023-01-24T06:53:31;6.40;;;6.00;;
47381;SDS011;33128;51.580;5.170;2023-01-24T06:55:58;6.55;;;6.15;;
47381;SDS011;33128;51.580;5.170;2023-01-24T06:58:24;6.32;;;5.93;;
47381;SDS011;33128;51.580;5.170;2023-01-24T07:00:51;6.30;;;5.90;;
47381;SDS011;33128;51.580;5.170;2023-01-24T07:03:17;5.75;;;5.40;;
47381;SDS011;33128;51.580;5.170;2023-01-24T07:05:43;5.95;;;5.55;;
47381;SDS011;33128;51.580;5.170;2023-01-24T07:08:08;5.97;;;5.57;;
47381;SDS011;33128;51.580;5.170;2023-01-24T07:10:34;5.55;;;5.20;;
47381;SDS011;33128;51.580;5.170;2023-01-24T07:13:00;6.30;;;5.78;;
47381;SDS011;33128;51.580;5.170;2023-01-24T07:15:25;6.00;;;5.63;;
47381;SDS011;33128;51.580;5.170;2023-01-24T07:17:51;6.10;;;5.65;;
47381;SDS011;33128;51.580;5.170;2023-01-24T07:20:17;5.93;;;5.53;;
47381;SDS011;33128;51.580;5.170;2023-01-24T07:22:43;5.68;;;5.38;;
47381;SDS011;33128;51.580;5.170;2023-01-24T07:25:13;6.18;;;5.78;;
47381;SDS011;33128;51.580;5.170;2023-01-24T07:27:41;7.35;;;6.13;;
47381;SDS011;33128;51.580;5.170;2023-01-24T07:30:08;5.88;;;5.40;;
47381;SDS011;33128;51.580;5.170;2023-01-24T07:32:35;5.63;;;5.32;;
47381;SDS011;33128;51.580;5.170;2023-01-24T07:35:01;6.13;;;5.80;;
47381;SDS011;33128;51.580;5.170;2023-01-24T07:37:27;6.72;;;6.20;;
47381;SDS011;33128;51.580;5.170;2023-01-24T07:39:52;5.22;;;4.93;;
47381;SDS011;33128;51.580;5.170;2023-01-24T07:42:18;5.82;;;5.43;;
47381;SDS011;33128;51.580;5.170;2023-01-24T07:44:44;5.03;;;4.72;;
47381;SDS011;33128;51.580;5.170;2023-01-24T07:47:09;5.45;;;5.15;;
47381;SDS011;33128;51.580;5.170;2023-01-24T07:49:35;6.00;;;5.60;;
47381;SDS011;33128;51.580;5.170;2023-01-24T07:52:00;5.82;;;5.43;;
47381;SDS011;33128;51.580;5.170;2023-01-24T07:54:26;6.05;;;5.60;;
47381;SDS011;33128;51.580;5.170;2023-01-24T07:56:51;5.63;;;5.30;;
47381;SDS011;33128;51.580;5.170;2023-01-24T07:59:17;5.80;;;5.40;;
47381;SDS011;33128;51.580;5.170;2023-01-24T08:01:43;5.90;;;5.50;;
47381;SDS011;33128;51.580;5.170;2023-01-24T08:04:08;5.50;;;5.07;;
47381;SDS011;33128;51.580;5.170;2023-01-24T08:06:34;5.72;;;5.32;;
47381;SDS011;33128;51.580;5.170;2023-01-24T08:09:00;5.50;;;5.20;;
47381;SDS011;33128;51.580;5.170;2023-01-24T08:11:26;5.60;;;5.10;;
47381;SDS011;33128;51.580;5.170;2023-01-24T08:13:51;5.57;;;5.18;;
47381;SDS011;33128;51.580;5.170;2023-01-24T08:16:17;7.28;;;6.07;;
47381;SDS011;33128;51.580;5.170;2023-01-24T08:18:42;6.30;;;5.80;;
47381;SDS011;33128;51.580;5.170;2023-01-24T08:21:11;5.82;;;5.43;;
47381;SDS011;33128;51.580;5.170;2023-01-24T08:23:36;5.38;;;5.13;;
47381;SDS011;33128;51.580;5.170;2023-01-24T08:26:02;5.80;;;5.47;;
47381;SDS011;33128;51.580;5.170;2023-01-24T08:28:31;6.15;;;5.82;;
47381;SDS011;33128;51.580;5.170;2023-01-24T08:30:58;6.00;;;5.55;;
47381;SDS011;33128;51.580;5.170;2023-01-24T08:33:23;5.57;;;5.20;;
47381;SDS011;33128;51.580;5.170;2023-01-24T08:35:49;5.78;;;5.47;;
47381;SDS011;33128;51.580;5.170;2023-01-24T08:38:15;5.95;;;5.53;;
47381;SDS011;33128;51.580;5.170;2023-01-24T08:40:42;5.65;;;5.30;;
47381;SDS011;33128;51.580;5.170;2023-01-24T08:43:08;5.75;;;5.45;;
47381;SDS011;33128;51.580;5.170;2023-01-24T08:45:34;6.68;;;6.18;;
47381;SDS011;33128;51.580;5.170;2023-01-24T08:47:59;6.15;;;5.85;;
47381;SDS011;33128;51.580;5.170;2023-01-24T08:50:26;6.35;;;5.95;;
47381;SDS011;33128;51.580;5.170;2023-01-24T08:52:55;6.25;;;5.85;;
47381;SDS011;33128;51.580;5.170;2023-01-24T08:55:21;6.35;;;5.97;;
47381;SDS011;33128;51.580;5.170;2023-01-24T08:57:48;5.70;;;5.40;;
47381;SDS011;33128;51.580;5.170;2023-01-24T09:00:16;5.80;;;5.50;;
47381;SDS011;33128;51.580;5.170;2023-01-24T09:02:45;5.82;;;5.43;;
47381;SDS011;33128;51.580;5.170;2023-01-24T09:05:10;6.40;;;6.00;;
47381;SDS011;33128;51.580;5.170;2023-01-24T09:07:36;5.82;;;5.53;;
47381;SDS011;33128;51.580;5.170;2023-01-24T09:10:04;5.93;;;5.43;;
47381;SDS011;33128;51.580;5.170;2023-01-24T09:12:30;7.07;;;5.65;;
47381;SDS011;33128;51.580;5.170;2023-01-24T09:14:59;5.45;;;5.15;;
47381;SDS011;33128;51.580;5.170;2023-01-24T09:17:25;6.13;;;5.68;;
47381;SDS011;33128;51.580;5.170;2023-01-24T09:19:50;5.43;;;4.93;;
47381;SDS011;33128;51.580;5.170;2023-01-24T09:22:16;5.15;;;4.85;;
47381;SDS011;33128;51.580;5.170;2023-01-24T09:24:42;6.00;;;5.50;;
47381;SDS011;33128;51.580;5.170;2023-01-24T09:27:09;5.97;;;5.57;;
47381;SDS011;33128;51.580;5.170;2023-01-24T09:29:35;5.88;;;5.57;;
47381;SDS011;33128;51.580;5.170;2023-01-24T09:32:01;6.07;;;5.78;;
47381;SDS011;33128;51.580;5.170;2023-01-24T09:34:26;5.10;;;4.80;;
47381;SDS011;33128;51.580;5.170;2023-01-24T09:36:52;5.32;;;5.03;;
47381;SDS011;33128;51.580;5.170;2023-01-24T09:39:17;5.43;;;5.05;;
47381;SDS011;33128;51.580;5.170;2023-01-24T09:41:57;5.85;;;5.45;;
47381;SDS011;33128;51.580;5.170;2023-01-24T09:44:34;6.20;;;5.70;;
47381;SDS011;33128;51.580;5.170;2023-01-24T09:49:52;6.13;;;5.63;;
47381;SDS011;33128;51.580;5.170;2023-01-24T09:52:29;5.28;;;4.97;;
47381;SDS011;33128;51.580;5.170;2023-01-24T09:55:35;6.93;;;6.28;;
47381;SDS011;33128;51.580;5.170;2023-01-24T09:57:59;5.57;;;5.28;;
47381;SDS011;33128;51.580;5.170;2023-01-24T10:00:35;6.17;;;5.77;;
47381;SDS011;33128;51.580;5.170;2023-01-24T10:03:02;5.75;;;5.43;;
47381;SDS011;33128;51.580;5.170;2023-01-24T10:05:35;6.30;;;5.82;;
47381;SDS011;33128;51.580;5.170;2023-01-24T10:10:43;5.40;;;5.20;;
47381;SDS011;33128;51.580;5.170;2023-01-24T10:19:17;5.88;;;5.57;;
47381;SDS011;33128;51.580;5.170;2023-01-24T10:24:23;6.60;;;6.13;;
47381;SDS011;33128;51.580;5.170;2023-01-24T10:26:53;5.50;;;5.20;;
47381;SDS011;33128;51.580;5.170;2023-01-24T10:32:11;6.15;;;5.85;;
47381;SDS011;33128;51.580;5.170;2023-01-24T10:34:45;5.63;;;5.30;;
47381;SDS011;33128;51.580;5.170;2023-01-24T10:37:36;6.30;;;5.88;;
47381;SDS011;33128;51.580;5.170;2023-01-24T10:40:15;5.35;;;5.05;;
47381;SDS011;33128;51.580;5.170;2023-01-24T10:42:41;6.07;;;5.70;;
47381;SDS011;33128;51.580;5.170;2023-01-24T10:45:16;5.07;;;4.88;;
47381;SDS011;33128;51.580;5.170;2023-01-24T10:47:50;5.78;;;5.45;;
47381;SDS011;33128;51.580;5.170;2023-01-24T10:50:21;5.65;;;5.25;;
47381;SDS011;33128;51.580;5.170;2023-01-24T10:52:48;6.53;;;5.90;;
47381;SDS011;33128;51.580;5.170;2023-01-24T10:57:55;5.35;;;5.05;;
47381;SDS011;33128;51.580;5.170;2023-01-24T11:02:53;5.57;;;5.35;;
47381;SDS011;33128;51.580;5.170;2023-01-24T11:05:22;5.57;;;5.20;;
47381;SDS011;33128;51.580;5.170;2023-01-24T11:07:59;6.05;;;5.75;;
47381;SDS011;33128;51.580;5.170;2023-01-24T11:10:26;4.88;;;4.68;;
47381;SDS011;33128;51.580;5.170;2023-01-24T11:13:05;6.28;;;5.90;;
47381;SDS011;33128;51.580;5.170;2023-01-24T11:15:59;4.97;;;4.78;;
47381;SDS011;33128;51.580;5.170;2023-01-24T11:18:29;5.95;;;5.55;;
47381;SDS011;33128;51.580;5.170;2023-01-24T11:21:06;5.18;;;4.90;;
47381;SDS011;33128;51.580;5.170;2023-01-24T11:23:42;5.28;;;5.07;;
47381;SDS011;33128;51.580;5.170;2023-01-24T11:26:22;6.35;;;6.00;;
47381;SDS011;33128;51.580;5.170;2023-01-24T11:28:56;6.50;;;6.00;;
47381;SDS011;33128;51.580;5.170;2023-01-24T11:31:30;6.22;;;5.80;;
47381;SDS011;33128;51.580;5.170;2023-01-24T11:39:36;5.60;;;5.30;;
47381;SDS011;33128;51.580;5.170;2023-01-24T11:53:09;6.45;;;5.95;;
47381;SDS011;33128;51.580;5.170;2023-01-24T11:56:30;5.63;;;5.22;;
47381;SDS011;33128;51.580;5.170;2023-01-24T12:01:14;6.03;;;5.72;;
47381;SDS011;33128;51.580;5.170;2023-01-24T12:04:07;6.00;;;5.60;;
47381;SDS011;33128;51.580;5.170;2023-01-24T12:06:47;6.18;;;5.78;;
47381;SDS011;33128;51.580;5.170;2023-01-24T12:18:23;5.75;;;5.50;;
47381;SDS011;33128;51.580;5.170;2023-01-24T12:31:57;5.15;;;4.90;;
47381;SDS011;33128;51.580;5.170;2023-01-24T12:37:42;5.20;;;4.90;;
47381;SDS011;33128;51.580;5.170;2023-01-24T12:40:19;5.65;;;5.35;;
47381;SDS011;33128;51.580;5.170;2023-01-24T12:42:57;5.10;;;4.90;;
47381;SDS011;33128;51.580;5.170;2023-01-24T12:45:34;5.45;;;5.05;;
47381;SDS011;33128;51.580;5.170;2023-01-24T12:50:53;5.60;;;5.20;;
47381;SDS011;33128;51.580;5.170;2023-01-24T12:58:34;5.78;;;5.47;;
47381;SDS011;33128;51.580;5.170;2023-01-24T13:06:53;5.50;;;5.20;;
47381;SDS011;33128;51.580;5.170;2023-01-24T13:12:16;5.50;;;5.15;;
47381;SDS011;33128;51.580;5.170;2023-01-24T13:15:06;5.57;;;5.35;;
47381;SDS011;33128;51.580;5.170;2023-01-24T13:20:28;5.80;;;5.50;;
47381;SDS011;33128;51.580;5.170;2023-01-24T13:28:17;5.50;;;5.20;;
47381;SDS011;33128;51.580;5.170;2023-01-24T13:33:50;5.80;;;5.50;;
47381;SDS011;33128;51.580;5.170;2023-01-24T13:36:24;6.18;;;5.88;;
47381;SDS011;33128;51.580;5.170;2023-01-24T13:38:53;5.50;;;5.10;;
47381;SDS011;33128;51.580;5.170;2023-01-24T13:49:18;5.60;;;5.30;;
47381;SDS011;33128;51.580;5.170;2023-01-24T13:51:54;5.53;;;5.28;;
47381;SDS011;33128;51.580;5.170;2023-01-24T13:57:10;5.70;;;5.40;;
47381;SDS011;33128;51.580;5.170;2023-01-24T14:00:14;6.13;;;5.72;;
47381;SDS011;33128;51.580;5.170;2023-01-24T14:02:35;5.90;;;5.60;;
47381;SDS011;33128;51.580;5.170;2023-01-24T14:05:32;5.80;;;5.50;;
47381;SDS011;33128;51.580;5.170;2023-01-24T14:07:50;6.32;;;5.93;;
47381;SDS011;33128;51.580;5.170;2023-01-24T14:10:15;6.03;;;5.65;;
47381;SDS011;33128;51.580;5.170;2023-01-24T14:12:41;6.38;;;6.03;;
47381;SDS011;33128;51.580;5.170;2023-01-24T14:17:46;6.30;;;5.90;;
47381;SDS011;33128;51.580;5.170;2023-01-24T14:22:43;5.88;;;5.55;;
47381;SDS011;33128;51.580;5.170;2023-01-24T14:28:02;5.53;;;5.30;;
47381;SDS011;33128;51.580;5.170;2023-01-24T14:30:38;5.47;;;5.18;;
47381;SDS011;33128;51.580;5.170;2023-01-24T14:36:00;6.20;;;5.85;;
47381;SDS011;33128;51.580;5.170;2023-01-24T14:38:47;6.22;;;5.80;;
47381;SDS011;33128;51.580;5.170;2023-01-24T14:41:33;5.85;;;5.55;;
47381;SDS011;33128;51.580;5.170;2023-01-24T14:43:59;5.90;;;5.40;;
47381;SDS011;33128;51.580;5.170;2023-01-24T14:46:24;5.32;;;5.03;;
47381;SDS011;33128;51.580;5.170;2023-01-24T14:48:50;5.65;;;5.35;;
47381;SDS011;33128;51.580;5.170;2023-01-24T14:51:17;4.82;;;4.63;;
47381;SDS011;33128;51.580;5.170;2023-01-24T14:53:50;5.40;;;5.10;;
47381;SDS011;33128;51.580;5.170;2023-01-24T14:56:18;5.07;;;4.78;;
47381;SDS011;33128;51.580;5.170;2023-01-24T14:58:44;5.30;;;5.00;;
47381;SDS011;33128;51.580;5.170;2023-01-24T15:03:53;5.82;;;5.50;;
47381;SDS011;33128;51.580;5.170;2023-01-24T15:06:22;5.55;;;5.25;;
47381;SDS011;33128;51.580;5.170;2023-01-24T15:08:53;5.13;;;4.93;;
47381;SDS011;33128;51.580;5.170;2023-01-24T15:11:25;6.22;;;5.72;;
47381;SDS011;33128;51.580;5.170;2023-01-24T15:14:02;5.30;;;5.10;;
47381;SDS011;33128;51.580;5.170;2023-01-24T15:16:38;5.20;;;4.85;;
47381;SDS011;33128;51.580;5.170;2023-01-24T15:19:14;5.38;;;5.07;;
47381;SDS011;33128;51.580;5.170;2023-01-24T15:21:49;6.05;;;5.55;;
47381;SDS011;33128;51.580;5.170;2023-01-24T15:24:28;6.13;;;5.72;;
47381;SDS011;33128;51.580;5.170;2023-01-24T15:26:55;5.05;;;4.82;;
47381;SDS011;33128;51.580;5.170;2023-01-24T15:35:11;5.13;;;4.93;;
47381;SDS011;33128;51.580;5.170;2023-01-24T15:43:16;4.50;;;4.30;;
47381;SDS011;33128;51.580;5.170;2023-01-24T15:46:03;4.43;;;4.13;;
47381;SDS011;33128;51.580;5.170;2023-01-24T15:48:55;4.75;;;4.50;;
47381;SDS011;33128;51.580;5.170;2023-01-24T15:51:45;5.10;;;4.80;;
47381;SDS011;33128;51.580;5.170;2023-01-24T15:54:29;5.30;;;5.00;;
47381;SDS011;33128;51.580;5.170;2023-01-24T15:56:57;5.13;;;4.82;;
47381;SDS011;33128;51.580;5.170;2023-01-24T15:59:28;4.90;;;4.65;;
47381;SDS011;33128;51.580;5.170;2023-01-24T16:01:54;5.63;;;5.30;;
47381;SDS011;33128;51.580;5.170;2023-01-24T16:04:20;5.32;;;4.82;;
47381;SDS011;33128;51.580;5.170;2023-01-24T16:06:47;4.88;;;4.68;;
47381;SDS011;33128;51.580;5.170;2023-01-24T16:09:13;5.20;;;4.90;;
47381;SDS011;33128;51.580;5.170;2023-01-24T16:11:43;5.97;;;5.47;;
47381;SDS011;33128;51.580;5.170;2023-01-24T16:14:12;5.82;;;5.53;;
47381;SDS011;33128;51.580;5.170;2023-01-24T16:16:42;5.43;;;5.13;;
47381;SDS011;33128;51.580;5.170;2023-01-24T16:19:15;6.18;;;5.68;;
47381;SDS011;33128;51.580;5.170;2023-01-24T16:21:44;5.40;;;5.20;;
47381;SDS011;33128;51.580;5.170;2023-01-24T16:24:10;5.63;;;5.32;;
47381;SDS011;33128;51.580;5.170;2023-01-24T16:26:36;5.05;;;4.75;;
47381;SDS011;33128;51.580;5.170;2023-01-24T16:29:24;5.25;;;4.85;;
47381;SDS011;33128;51.580;5.170;2023-01-24T16:31:52;4.88;;;4.57;;
47381;SDS011;33128;51.580;5.170;2023-01-24T16:34:18;5.30;;;5.00;;
47381;SDS011;33128;51.580;5.170;2023-01-24T16:36:44;5.70;;;5.40;;
47381;SDS011;33128;51.580;5.170;2023-01-24T16:39:13;5.82;;;5.53;;
47381;SDS011;33128;51.580;5.170;2023-01-24T16:41:47;4.90;;;4.68;;
47381;SDS011;33128;51.580;5.170;2023-01-24T16:44:14;5.70;;;5.38;;
47381;SDS011;33128;51.580;5.170;2023-01-24T16:46:40;5.70;;;5.40;;
47381;SDS011;33128;51.580;5.170;2023-01-24T16:49:16;6.22;;;5.82;;
47381;SDS011;33128;51.580;5.170;2023-01-24T16:51:42;6.78;;;6.30;;
47381;SDS011;33128;51.580;5.170;2023-01-24T16:54:08;6.35;;;5.95;;
47381;SDS011;33128;51.580;5.170;2023-01-24T16:56:34;5.95;;;5.65;;
47381;SDS011;33128;51.580;5.170;2023-01-24T16:58:59;5.88;;;5.47;;
47381;SDS011;33128;51.580;5.170;2023-01-24T17:01:25;6.80;;;6.30;;
47381;SDS011;33128;51.580;5.170;2023-01-24T17:03:51;6.05;;;5.65;;
47381;SDS011;33128;51.580;5.170;2023-01-24T17:06:17;7.18;;;6.68;;
47381;SDS011;33128;51.580;5.170;2023-01-24T17:08:43;6.88;;;6.28;;
47381;SDS011;33128;51.580;5.170;2023-01-24T17:11:15;6.68;;;6.13;;